sensor_id;sensor_type;location;lat;lon;timestamp;temperature;humidity
17807;DHT22;9027;48.938;9.182;2022-08-01T00:00:28;22.10;93.70
17807;DHT22;9027;48.938;9.182;2022-08-01T00:02:00;22.10;94.10
17807;DHT22;9027;48.938;9.182;2022-08-01T00:03:32;22.00;94.20
17807;DHT22;9027;48.938;9.182;2022-08-01T00:05:06;21.90;94.80
17807;DHT22;9027;48.938;9.182;2022-08-01T00:06:39;21.80;95.10
17807;DHT22;9027;48.938;9.182;2022-08-01T00:08:10;21.70;95.40
17807;DHT22;9027;48.938;9.182;2022-08-01T00:09:42;21.60;95.80
17807;DHT22;9027;48.938;9.182;2022-08-01T00:11:14;21.50;96.10
17807;DHT22;9027;48.938;9.182;2022-08-01T00:12:45;21.60;96.50
17807;DHT22;9027;48.938;9.182;2022-08-01T00:14:17;21.60;96.70
17807;DHT22;9027;48.938;9.182;2022-08-01T00:15:49;21.50;97.20
17807;DHT22;9027;48.938;9.182;2022-08-01T00:17:20;21.40;97.50
17807;DHT22;9027;48.938;9.182;2022-08-01T00:18:52;21.40;97.80
17807;DHT22;9027;48.938;9.182;2022-08-01T00:20:24;21.50;98.00
17807;DHT22;9027;48.938;9.182;2022-08-01T00:21:57;21.50;98.30
17807;DHT22;9027;48.938;9.182;2022-08-01T00:23:29;21.40;98.50
17807;DHT22;9027;48.938;9.182;2022-08-01T00:25:02;21.50;98.80
17807;DHT22;9027;48.938;9.182;2022-08-01T00:26:35;21.50;99.00
17807;DHT22;9027;48.938;9.182;2022-08-01T00:28:06;21.60;99.00
17807;DHT22;9027;48.938;9.182;2022-08-01T00:29:39;21.60;99.00
17807;DHT22;9027;48.938;9.182;2022-08-01T00:31:11;21.60;99.20
17807;DHT22;9027;48.938;9.182;2022-08-01T00:32:42;21.60;99.30
17807;DHT22;9027;48.938;9.182;2022-08-01T00:34:14;21.70;99.40
17807;DHT22;9027;48.938;9.182;2022-08-01T00:35:46;21.70;99.50
17807;DHT22;9027;48.938;9.182;2022-08-01T00:37:19;21.70;99.60
17807;DHT22;9027;48.938;9.182;2022-08-01T00:38:51;21.70;99.80
17807;DHT22;9027;48.938;9.182;2022-08-01T00:40:23;21.70;99.90
17807;DHT22;9027;48.938;9.182;2022-08-01T00:41:54;21.60;99.90
17807;DHT22;9027;48.938;9.182;2022-08-01T00:43:26;21.50;99.90
17807;DHT22;9027;48.938;9.182;2022-08-01T00:44:57;21.40;99.90
17807;DHT22;9027;48.938;9.182;2022-08-01T00:46:29;21.30;99.90
17807;DHT22;9027;48.938;9.182;2022-08-01T00:48:01;21.30;99.90
17807;DHT22;9027;48.938;9.182;2022-08-01T00:49:34;21.20;99.90
17807;DHT22;9027;48.938;9.182;2022-08-01T00:51:07;21.20;99.90
17807;DHT22;9027;48.938;9.182;2022-08-01T00:52:41;21.20;99.90
17807;DHT22;9027;48.938;9.182;2022-08-01T00:54:13;21.20;99.90
17807;DHT22;9027;48.938;9.182;2022-08-01T00:55:47;21.20;99.90
17807;DHT22;9027;48.938;9.182;2022-08-01T00:57:19;21.20;99.90
17807;DHT22;9027;48.938;9.182;2022-08-01T00:58:52;21.10;99.90
17807;DHT22;9027;48.938;9.182;2022-08-01T01:00:24;21.10;99.90
17807;DHT22;9027;48.938;9.182;2022-08-01T01:01:56;21.10;99.90
17807;DHT22;9027;48.938;9.182;2022-08-01T01:03:28;21.20;99.90
17807;DHT22;9027;48.938;9.182;2022-08-01T01:05:00;21.20;99.90
17807;DHT22;9027;48.938;9.182;2022-08-01T01:06:41;21.30;99.90
17807;DHT22;9027;48.938;9.182;2022-08-01T01:08:22;21.30;99.90
17807;DHT22;9027;48.938;9.182;2022-08-01T01:09:58;21.40;99.90
17807;DHT22;9027;48.938;9.182;2022-08-01T01:11:36;21.50;99.90
17807;DHT22;9027;48.938;9.182;2022-08-01T01:13:15;21.40;99.90
17807;DHT22;9027;48.938;9.182;2022-08-01T01:14:54;21.50;99.90
17807;DHT22;9027;48.938;9.182;2022-08-01T01:16:30;21.50;99.90
17807;DHT22;9027;48.938;9.182;2022-08-01T01:18:04;21.60;99.90
17807;DHT22;9027;48.938;9.182;2022-08-01T01:19:43;21.60;99.90
17807;DHT22;9027;48.938;9.182;2022-08-01T01:21:49;21.70;99.90
17807;DHT22;9027;48.938;9.182;2022-08-01T01:23:39;21.70;99.90
17807;DHT22;9027;48.938;9.182;2022-08-01T01:25:25;21.80;99.90
17807;DHT22;9027;48.938;9.182;2022-08-01T01:27:09;21.80;99.90
17807;DHT22;9027;48.938;9.182;2022-08-01T01:28:57;21.80;99.90
17807;DHT22;9027;48.938;9.182;2022-08-01T01:30:31;21.80;99.90
17807;DHT22;9027;48.938;9.182;2022-08-01T01:32:05;21.80;99.90
17807;DHT22;9027;48.938;9.182;2022-08-01T01:33:39;21.80;99.90
17807;DHT22;9027;48.938;9.182;2022-08-01T01:35:16;21.80;99.90
17807;DHT22;9027;48.938;9.182;2022-08-01T01:36:50;21.80;99.90
17807;DHT22;9027;48.938;9.182;2022-08-01T01:38:26;21.90;99.90
17807;DHT22;9027;48.938;9.182;2022-08-01T01:40:00;21.90;99.90
17807;DHT22;9027;48.938;9.182;2022-08-01T01:41:35;21.90;99.90
17807;DHT22;9027;48.938;9.182;2022-08-01T01:43:10;21.90;99.90
17807;DHT22;9027;48.938;9.182;2022-08-01T01:44:45;21.90;99.90
17807;DHT22;9027;48.938;9.182;2022-08-01T01:46:24;21.90;99.90
17807;DHT22;9027;48.938;9.182;2022-08-01T01:47:59;21.90;99.90
17807;DHT22;9027;48.938;9.182;2022-08-01T01:49:32;21.90;99.90
17807;DHT22;9027;48.938;9.182;2022-08-01T01:51:05;21.90;99.90
17807;DHT22;9027;48.938;9.182;2022-08-01T01:52:39;22.00;99.90
17807;DHT22;9027;48.938;9.182;2022-08-01T01:54:12;22.00;99.90
17807;DHT22;9027;48.938;9.182;2022-08-01T01:55:46;22.00;99.90
17807;DHT22;9027;48.938;9.182;2022-08-01T01:57:20;22.00;99.90
17807;DHT22;9027;48.938;9.182;2022-08-01T01:58:55;22.00;99.90
17807;DHT22;9027;48.938;9.182;2022-08-01T02:00:30;22.00;99.90
17807;DHT22;9027;48.938;9.182;2022-08-01T02:02:04;22.00;99.90
17807;DHT22;9027;48.938;9.182;2022-08-01T02:03:37;21.90;99.90
17807;DHT22;9027;48.938;9.182;2022-08-01T02:05:13;21.90;99.90
17807;DHT22;9027;48.938;9.182;2022-08-01T02:06:46;21.90;99.90
17807;DHT22;9027;48.938;9.182;2022-08-01T02:08:18;21.90;99.90
17807;DHT22;9027;48.938;9.182;2022-08-01T02:09:52;21.90;99.90
17807;DHT22;9027;48.938;9.182;2022-08-01T02:11:25;21.90;99.90
17807;DHT22;9027;48.938;9.182;2022-08-01T02:12:57;22.00;99.90
17807;DHT22;9027;48.938;9.182;2022-08-01T02:14:33;21.90;99.90
17807;DHT22;9027;48.938;9.182;2022-08-01T02:16:08;22.00;99.90
17807;DHT22;9027;48.938;9.182;2022-08-01T02:17:44;22.00;99.90
17807;DHT22;9027;48.938;9.182;2022-08-01T02:19:17;21.90;99.90
17807;DHT22;9027;48.938;9.182;2022-08-01T02:20:51;21.90;99.90
17807;DHT22;9027;48.938;9.182;2022-08-01T02:22:29;21.90;99.90
17807;DHT22;9027;48.938;9.182;2022-08-01T02:24:06;21.90;99.90
17807;DHT22;9027;48.938;9.182;2022-08-01T02:25:43;21.90;99.90
17807;DHT22;9027;48.938;9.182;2022-08-01T02:27:21;21.90;99.90
17807;DHT22;9027;48.938;9.182;2022-08-01T02:28:59;21.80;99.90
17807;DHT22;9027;48.938;9.182;2022-08-01T02:30:35;21.80;99.90
17807;DHT22;9027;48.938;9.182;2022-08-01T02:32:11;21.80;99.90
17807;DHT22;9027;48.938;9.182;2022-08-01T02:33:47;21.80;99.90
17807;DHT22;9027;48.938;9.182;2022-08-01T02:35:23;21.80;99.90
17807;DHT22;9027;48.938;9.182;2022-08-01T02:36:56;21.80;99.90
17807;DHT22;9027;48.938;9.182;2022-08-01T02:38:31;21.80;99.90
17807;DHT22;9027;48.938;9.182;2022-08-01T02:40:04;21.80;99.90
17807;DHT22;9027;48.938;9.182;2022-08-01T02:41:40;21.80;99.90
17807;DHT22;9027;48.938;9.182;2022-08-01T02:43:12;21.80;99.90
17807;DHT22;9027;48.938;9.182;2022-08-01T02:44:47;21.80;99.90
17807;DHT22;9027;48.938;9.182;2022-08-01T02:46:24;21.80;99.90
17807;DHT22;9027;48.938;9.182;2022-08-01T02:48:03;21.80;99.90
17807;DHT22;9027;48.938;9.182;2022-08-01T02:49:42;21.70;99.90
17807;DHT22;9027;48.938;9.182;2022-08-01T02:51:15;21.60;99.90
17807;DHT22;9027;48.938;9.182;2022-08-01T02:52:50;21.50;99.90
17807;DHT22;9027;48.938;9.182;2022-08-01T02:54:23;21.40;99.90
17807;DHT22;9027;48.938;9.182;2022-08-01T02:55:57;21.30;99.90
17807;DHT22;9027;48.938;9.182;2022-08-01T02:57:30;21.30;99.90
17807;DHT22;9027;48.938;9.182;2022-08-01T02:59:05;21.20;99.90
17807;DHT22;9027;48.938;9.182;2022-08-01T03:00:38;21.10;99.90
17807;DHT22;9027;48.938;9.182;2022-08-01T03:02:12;21.10;99.90
17807;DHT22;9027;48.938;9.182;2022-08-01T03:03:46;21.00;99.90
17807;DHT22;9027;48.938;9.182;2022-08-01T03:05:18;20.90;99.90
17807;DHT22;9027;48.938;9.182;2022-08-01T03:06:51;20.90;99.90
17807;DHT22;9027;48.938;9.182;2022-08-01T03:08:24;20.80;99.90
17807;DHT22;9027;48.938;9.182;2022-08-01T03:09:57;20.80;99.90
17807;DHT22;9027;48.938;9.182;2022-08-01T03:11:29;20.90;99.90
17807;DHT22;9027;48.938;9.182;2022-08-01T03:13:03;20.90;99.90
17807;DHT22;9027;48.938;9.182;2022-08-01T03:14:38;21.10;99.90
17807;DHT22;9027;48.938;9.182;2022-08-01T03:16:12;21.10;99.90
17807;DHT22;9027;48.938;9.182;2022-08-01T03:17:46;21.10;99.90
17807;DHT22;9027;48.938;9.182;2022-08-01T03:19:23;21.10;99.90
17807;DHT22;9027;48.938;9.182;2022-08-01T03:20:56;21.20;99.90
17807;DHT22;9027;48.938;9.182;2022-08-01T03:22:31;21.20;99.90
17807;DHT22;9027;48.938;9.182;2022-08-01T03:24:05;21.20;99.90
17807;DHT22;9027;48.938;9.182;2022-08-01T03:25:40;21.20;99.90
17807;DHT22;9027;48.938;9.182;2022-08-01T03:27:14;21.20;99.90
17807;DHT22;9027;48.938;9.182;2022-08-01T03:28:46;21.10;99.90
17807;DHT22;9027;48.938;9.182;2022-08-01T03:30:20;21.00;99.90
17807;DHT22;9027;48.938;9.182;2022-08-01T03:31:53;20.80;99.90
17807;DHT22;9027;48.938;9.182;2022-08-01T03:33:25;20.70;99.90
17807;DHT22;9027;48.938;9.182;2022-08-01T03:34:59;20.70;99.90
17807;DHT22;9027;48.938;9.182;2022-08-01T03:36:32;20.70;99.90
17807;DHT22;9027;48.938;9.182;2022-08-01T03:38:08;20.60;99.90
17807;DHT22;9027;48.938;9.182;2022-08-01T03:39:45;20.40;99.90
17807;DHT22;9027;48.938;9.182;2022-08-01T03:41:20;20.40;99.90
17807;DHT22;9027;48.938;9.182;2022-08-01T03:42:56;20.30;99.90
17807;DHT22;9027;48.938;9.182;2022-08-01T03:44:32;20.30;99.90
17807;DHT22;9027;48.938;9.182;2022-08-01T03:46:10;20.20;99.90
17807;DHT22;9027;48.938;9.182;2022-08-01T03:47:44;20.20;99.90
17807;DHT22;9027;48.938;9.182;2022-08-01T03:49:21;20.20;99.90
17807;DHT22;9027;48.938;9.182;2022-08-01T03:50:58;20.20;99.90
17807;DHT22;9027;48.938;9.182;2022-08-01T03:52:30;20.10;99.90
17807;DHT22;9027;48.938;9.182;2022-08-01T03:54:04;20.10;99.90
17807;DHT22;9027;48.938;9.182;2022-08-01T03:55:38;20.10;99.90
17807;DHT22;9027;48.938;9.182;2022-08-01T03:57:11;20.10;99.90
17807;DHT22;9027;48.938;9.182;2022-08-01T03:58:43;20.00;99.90
17807;DHT22;9027;48.938;9.182;2022-08-01T04:00:16;19.80;99.90
17807;DHT22;9027;48.938;9.182;2022-08-01T04:01:49;19.70;99.90
17807;DHT22;9027;48.938;9.182;2022-08-01T04:03:21;19.70;99.90
17807;DHT22;9027;48.938;9.182;2022-08-01T04:04:54;19.60;99.90
17807;DHT22;9027;48.938;9.182;2022-08-01T04:06:28;19.60;99.90
17807;DHT22;9027;48.938;9.182;2022-08-01T04:08:00;19.60;99.90
17807;DHT22;9027;48.938;9.182;2022-08-01T04:09:33;19.60;99.90
17807;DHT22;9027;48.938;9.182;2022-08-01T04:11:05;19.60;99.90
17807;DHT22;9027;48.938;9.182;2022-08-01T04:12:39;19.70;99.90
17807;DHT22;9027;48.938;9.182;2022-08-01T04:14:11;19.80;99.90
17807;DHT22;9027;48.938;9.182;2022-08-01T04:15:42;19.90;99.90
17807;DHT22;9027;48.938;9.182;2022-08-01T04:17:16;19.90;99.90
17807;DHT22;9027;48.938;9.182;2022-08-01T04:18:48;19.90;99.90
17807;DHT22;9027;48.938;9.182;2022-08-01T04:20:20;19.90;99.90
17807;DHT22;9027;48.938;9.182;2022-08-01T04:21:53;19.80;99.90
17807;DHT22;9027;48.938;9.182;2022-08-01T04:23:27;19.80;99.90
17807;DHT22;9027;48.938;9.182;2022-08-01T04:25:00;20.00;99.90
17807;DHT22;9027;48.938;9.182;2022-08-01T04:26:36;20.20;99.90
17807;DHT22;9027;48.938;9.182;2022-08-01T04:28:10;20.40;99.90
17807;DHT22;9027;48.938;9.182;2022-08-01T04:29:47;20.60;99.90
17807;DHT22;9027;48.938;9.182;2022-08-01T04:31:22;20.80;99.90
17807;DHT22;9027;48.938;9.182;2022-08-01T04:33:00;21.20;99.90
17807;DHT22;9027;48.938;9.182;2022-08-01T04:34:33;21.60;99.90
17807;DHT22;9027;48.938;9.182;2022-08-01T04:36:06;22.00;99.90
17807;DHT22;9027;48.938;9.182;2022-08-01T04:37:43;22.20;99.90
17807;DHT22;9027;48.938;9.182;2022-08-01T04:39:17;22.70;99.90
17807;DHT22;9027;48.938;9.182;2022-08-01T04:40:50;22.90;99.90
17807;DHT22;9027;48.938;9.182;2022-08-01T04:42:23;23.40;99.90
17807;DHT22;9027;48.938;9.182;2022-08-01T04:43:55;24.00;99.90
17807;DHT22;9027;48.938;9.182;2022-08-01T04:45:30;24.40;99.90
17807;DHT22;9027;48.938;9.182;2022-08-01T04:47:03;24.90;99.90
17807;DHT22;9027;48.938;9.182;2022-08-01T04:48:37;25.20;99.90
17807;DHT22;9027;48.938;9.182;2022-08-01T04:50:11;25.50;99.90
17807;DHT22;9027;48.938;9.182;2022-08-01T04:51:50;25.50;99.90
17807;DHT22;9027;48.938;9.182;2022-08-01T04:53:24;26.20;99.90
17807;DHT22;9027;48.938;9.182;2022-08-01T04:54:56;26.80;99.90
17807;DHT22;9027;48.938;9.182;2022-08-01T04:56:28;27.30;99.90
17807;DHT22;9027;48.938;9.182;2022-08-01T04:58:00;27.60;99.50
17807;DHT22;9027;48.938;9.182;2022-08-01T04:59:36;28.00;98.40
17807;DHT22;9027;48.938;9.182;2022-08-01T05:01:11;28.20;97.90
17807;DHT22;9027;48.938;9.182;2022-08-01T05:02:42;28.10;97.90
17807;DHT22;9027;48.938;9.182;2022-08-01T05:04:14;28.50;97.10
17807;DHT22;9027;48.938;9.182;2022-08-01T05:05:45;28.70;96.70
17807;DHT22;9027;48.938;9.182;2022-08-01T05:07:17;29.00;96.00
17807;DHT22;9027;48.938;9.182;2022-08-01T05:08:50;29.30;95.30
17807;DHT22;9027;48.938;9.182;2022-08-01T05:10:22;29.50;94.90
17807;DHT22;9027;48.938;9.182;2022-08-01T05:11:54;29.50;94.60
17807;DHT22;9027;48.938;9.182;2022-08-01T05:13:28;29.60;94.30
17807;DHT22;9027;48.938;9.182;2022-08-01T05:15:01;29.60;94.10
17807;DHT22;9027;48.938;9.182;2022-08-01T05:16:33;29.60;93.90
17807;DHT22;9027;48.938;9.182;2022-08-01T05:18:05;29.80;93.50
17807;DHT22;9027;48.938;9.182;2022-08-01T05:19:38;29.90;93.10
17807;DHT22;9027;48.938;9.182;2022-08-01T05:21:10;30.10;92.90
17807;DHT22;9027;48.938;9.182;2022-08-01T05:22:42;30.30;92.50
17807;DHT22;9027;48.938;9.182;2022-08-01T05:24:15;30.40;92.20
17807;DHT22;9027;48.938;9.182;2022-08-01T05:25:47;30.60;92.00
17807;DHT22;9027;48.938;9.182;2022-08-01T05:27:20;30.70;91.60
17807;DHT22;9027;48.938;9.182;2022-08-01T05:28:52;30.70;91.10
17807;DHT22;9027;48.938;9.182;2022-08-01T05:30:24;30.70;90.90
17807;DHT22;9027;48.938;9.182;2022-08-01T05:31:56;30.70;90.50
17807;DHT22;9027;48.938;9.182;2022-08-01T05:33:28;30.60;90.50
17807;DHT22;9027;48.938;9.182;2022-08-01T05:35:00;30.50;90.80
17807;DHT22;9027;48.938;9.182;2022-08-01T05:36:32;30.20;91.30
17807;DHT22;9027;48.938;9.182;2022-08-01T05:38:04;29.60;91.90
17807;DHT22;9027;48.938;9.182;2022-08-01T05:39:37;29.20;92.80
17807;DHT22;9027;48.938;9.182;2022-08-01T05:41:10;28.80;93.70
17807;DHT22;9027;48.938;9.182;2022-08-01T05:42:42;28.50;94.40
17807;DHT22;9027;48.938;9.182;2022-08-01T05:44:14;28.20;95.10
17807;DHT22;9027;48.938;9.182;2022-08-01T05:45:46;28.10;95.40
17807;DHT22;9027;48.938;9.182;2022-08-01T05:47:18;28.10;95.80
17807;DHT22;9027;48.938;9.182;2022-08-01T05:48:50;28.00;96.30
17807;DHT22;9027;48.938;9.182;2022-08-01T05:50:22;28.00;95.90
17807;DHT22;9027;48.938;9.182;2022-08-01T05:51:54;27.90;96.20
17807;DHT22;9027;48.938;9.182;2022-08-01T05:53:26;27.70;96.60
17807;DHT22;9027;48.938;9.182;2022-08-01T05:54:59;27.30;97.10
17807;DHT22;9027;48.938;9.182;2022-08-01T05:56:31;27.10;97.90
17807;DHT22;9027;48.938;9.182;2022-08-01T05:58:03;26.90;98.10
17807;DHT22;9027;48.938;9.182;2022-08-01T05:59:35;26.90;98.50
17807;DHT22;9027;48.938;9.182;2022-08-01T06:01:07;27.00;98.70
17807;DHT22;9027;48.938;9.182;2022-08-01T06:02:42;27.20;98.40
17807;DHT22;9027;48.938;9.182;2022-08-01T06:04:14;27.40;98.00
17807;DHT22;9027;48.938;9.182;2022-08-01T06:05:46;27.50;97.80
17807;DHT22;9027;48.938;9.182;2022-08-01T06:07:18;27.70;97.70
17807;DHT22;9027;48.938;9.182;2022-08-01T06:08:50;27.70;97.70
17807;DHT22;9027;48.938;9.182;2022-08-01T06:10:23;27.70;97.70
17807;DHT22;9027;48.938;9.182;2022-08-01T06:11:55;27.60;98.20
17807;DHT22;9027;48.938;9.182;2022-08-01T06:13:28;27.70;97.70
17807;DHT22;9027;48.938;9.182;2022-08-01T06:15:00;27.80;97.90
17807;DHT22;9027;48.938;9.182;2022-08-01T06:16:32;28.00;97.70
17807;DHT22;9027;48.938;9.182;2022-08-01T06:18:04;28.20;97.40
17807;DHT22;9027;48.938;9.182;2022-08-01T06:19:36;28.10;97.30
17807;DHT22;9027;48.938;9.182;2022-08-01T06:21:08;28.20;97.70
17807;DHT22;9027;48.938;9.182;2022-08-01T06:22:39;28.20;97.30
17807;DHT22;9027;48.938;9.182;2022-08-01T06:24:11;28.20;97.40
17807;DHT22;9027;48.938;9.182;2022-08-01T06:25:45;28.20;97.40
17807;DHT22;9027;48.938;9.182;2022-08-01T06:27:18;28.20;97.70
17807;DHT22;9027;48.938;9.182;2022-08-01T06:28:50;28.30;96.90
17807;DHT22;9027;48.938;9.182;2022-08-01T06:30:22;28.50;97.10
17807;DHT22;9027;48.938;9.182;2022-08-01T06:31:54;28.70;97.70
17807;DHT22;9027;48.938;9.182;2022-08-01T06:33:29;28.90;96.80
17807;DHT22;9027;48.938;9.182;2022-08-01T06:35:01;29.00;96.50
17807;DHT22;9027;48.938;9.182;2022-08-01T06:36:32;29.10;96.50
17807;DHT22;9027;48.938;9.182;2022-08-01T06:38:04;29.20;96.60
17807;DHT22;9027;48.938;9.182;2022-08-01T06:39:36;29.20;95.90
17807;DHT22;9027;48.938;9.182;2022-08-01T06:41:09;28.80;96.40
17807;DHT22;9027;48.938;9.182;2022-08-01T06:42:41;28.80;96.00
17807;DHT22;9027;48.938;9.182;2022-08-01T06:44:13;28.80;96.80
17807;DHT22;9027;48.938;9.182;2022-08-01T06:45:45;28.80;96.60
17807;DHT22;9027;48.938;9.182;2022-08-01T06:47:17;28.90;96.80
17807;DHT22;9027;48.938;9.182;2022-08-01T06:48:49;29.00;97.20
17807;DHT22;9027;48.938;9.182;2022-08-01T06:50:21;29.00;96.50
17807;DHT22;9027;48.938;9.182;2022-08-01T06:51:53;29.00;96.20
17807;DHT22;9027;48.938;9.182;2022-08-01T06:53:25;29.00;97.00
17807;DHT22;9027;48.938;9.182;2022-08-01T06:54:57;29.00;96.10
17807;DHT22;9027;48.938;9.182;2022-08-01T06:56:31;29.20;95.80
17807;DHT22;9027;48.938;9.182;2022-08-01T06:58:05;29.40;95.90
17807;DHT22;9027;48.938;9.182;2022-08-01T06:59:37;29.30;95.60
17807;DHT22;9027;48.938;9.182;2022-08-01T07:01:09;29.50;95.30
17807;DHT22;9027;48.938;9.182;2022-08-01T07:02:42;29.40;95.10
17807;DHT22;9027;48.938;9.182;2022-08-01T07:04:14;29.50;95.40
17807;DHT22;9027;48.938;9.182;2022-08-01T07:05:46;29.60;94.50
17807;DHT22;9027;48.938;9.182;2022-08-01T07:07:18;29.90;94.90
17807;DHT22;9027;48.938;9.182;2022-08-01T07:08:50;29.90;94.00
17807;DHT22;9027;48.938;9.182;2022-08-01T07:10:22;29.90;94.20
17807;DHT22;9027;48.938;9.182;2022-08-01T07:11:56;29.90;94.20
17807;DHT22;9027;48.938;9.182;2022-08-01T07:13:28;30.10;93.90
17807;DHT22;9027;48.938;9.182;2022-08-01T07:15:02;30.20;94.20
17807;DHT22;9027;48.938;9.182;2022-08-01T07:16:34;30.20;93.80
17807;DHT22;9027;48.938;9.182;2022-08-01T07:18:05;29.80;94.00
17807;DHT22;9027;48.938;9.182;2022-08-01T07:19:37;29.40;94.40
17807;DHT22;9027;48.938;9.182;2022-08-01T07:21:09;29.10;95.30
17807;DHT22;9027;48.938;9.182;2022-08-01T07:22:42;28.80;96.00
17807;DHT22;9027;48.938;9.182;2022-08-01T07:24:14;28.60;95.70
17807;DHT22;9027;48.938;9.182;2022-08-01T07:25:46;28.40;96.30
17807;DHT22;9027;48.938;9.182;2022-08-01T07:27:21;28.40;96.50
17807;DHT22;9027;48.938;9.182;2022-08-01T07:28:53;28.30;96.70
17807;DHT22;9027;48.938;9.182;2022-08-01T07:30:25;28.20;97.10
17807;DHT22;9027;48.938;9.182;2022-08-01T07:31:57;27.90;97.10
17807;DHT22;9027;48.938;9.182;2022-08-01T07:33:29;27.60;97.70
17807;DHT22;9027;48.938;9.182;2022-08-01T07:35:01;27.50;98.60
17807;DHT22;9027;48.938;9.182;2022-08-01T07:36:33;27.40;98.70
17807;DHT22;9027;48.938;9.182;2022-08-01T07:38:06;27.30;98.80
17807;DHT22;9027;48.938;9.182;2022-08-01T07:39:38;27.30;99.40
17807;DHT22;9027;48.938;9.182;2022-08-01T07:41:10;27.40;99.30
17807;DHT22;9027;48.938;9.182;2022-08-01T07:42:43;27.60;99.00
17807;DHT22;9027;48.938;9.182;2022-08-01T07:44:15;27.50;99.10
17807;DHT22;9027;48.938;9.182;2022-08-01T07:45:47;27.60;99.20
17807;DHT22;9027;48.938;9.182;2022-08-01T07:47:23;27.80;98.80
17807;DHT22;9027;48.938;9.182;2022-08-01T07:48:55;28.00;98.50
17807;DHT22;9027;48.938;9.182;2022-08-01T07:50:27;28.20;98.00
17807;DHT22;9027;48.938;9.182;2022-08-01T07:52:00;28.20;97.50
17807;DHT22;9027;48.938;9.182;2022-08-01T07:53:32;28.20;97.80
17807;DHT22;9027;48.938;9.182;2022-08-01T07:55:05;28.10;98.20
17807;DHT22;9027;48.938;9.182;2022-08-01T07:56:37;28.00;97.70
17807;DHT22;9027;48.938;9.182;2022-08-01T07:58:10;27.80;97.80
17807;DHT22;9027;48.938;9.182;2022-08-01T07:59:42;27.60;98.10
17807;DHT22;9027;48.938;9.182;2022-08-01T08:01:14;27.50;98.40
17807;DHT22;9027;48.938;9.182;2022-08-01T08:02:46;27.50;98.30
17807;DHT22;9027;48.938;9.182;2022-08-01T08:04:18;27.60;98.80
17807;DHT22;9027;48.938;9.182;2022-08-01T08:05:50;27.60;98.40
17807;DHT22;9027;48.938;9.182;2022-08-01T08:07:22;27.60;98.50
17807;DHT22;9027;48.938;9.182;2022-08-01T08:08:54;27.50;98.60
17807;DHT22;9027;48.938;9.182;2022-08-01T08:10:26;27.50;98.20
17807;DHT22;9027;48.938;9.182;2022-08-01T08:11:58;27.50;98.30
17807;DHT22;9027;48.938;9.182;2022-08-01T08:13:33;27.70;98.20
17807;DHT22;9027;48.938;9.182;2022-08-01T08:15:06;28.10;98.40
17807;DHT22;9027;48.938;9.182;2022-08-01T08:16:38;28.20;97.10
17807;DHT22;9027;48.938;9.182;2022-08-01T08:18:09;28.30;97.50
17807;DHT22;9027;48.938;9.182;2022-08-01T08:19:42;28.40;97.90
17807;DHT22;9027;48.938;9.182;2022-08-01T08:21:14;28.70;97.20
17807;DHT22;9027;48.938;9.182;2022-08-01T08:22:46;28.70;97.10
17807;DHT22;9027;48.938;9.182;2022-08-01T08:24:18;28.60;97.30
17807;DHT22;9027;48.938;9.182;2022-08-01T08:25:54;28.50;97.40
17807;DHT22;9027;48.938;9.182;2022-08-01T08:27:26;28.20;98.10
17807;DHT22;9027;48.938;9.182;2022-08-01T08:28:59;28.10;98.50
17807;DHT22;9027;48.938;9.182;2022-08-01T08:30:31;28.20;98.10
17807;DHT22;9027;48.938;9.182;2022-08-01T08:32:03;28.30;98.00
17807;DHT22;9027;48.938;9.182;2022-08-01T08:33:35;28.30;97.90
17807;DHT22;9027;48.938;9.182;2022-08-01T08:35:08;28.70;97.60
17807;DHT22;9027;48.938;9.182;2022-08-01T08:36:40;28.90;96.60
17807;DHT22;9027;48.938;9.182;2022-08-01T08:38:12;29.30;95.70
17807;DHT22;9027;48.938;9.182;2022-08-01T08:39:44;29.50;95.60
17807;DHT22;9027;48.938;9.182;2022-08-01T08:41:16;29.40;95.10
17807;DHT22;9027;48.938;9.182;2022-08-01T08:42:48;29.30;94.90
17807;DHT22;9027;48.938;9.182;2022-08-01T08:44:21;29.50;94.80
17807;DHT22;9027;48.938;9.182;2022-08-01T08:45:53;29.40;94.70
17807;DHT22;9027;48.938;9.182;2022-08-01T08:47:25;28.80;95.90
17807;DHT22;9027;48.938;9.182;2022-08-01T08:49:01;28.70;95.90
17807;DHT22;9027;48.938;9.182;2022-08-01T08:50:34;28.80;96.30
17807;DHT22;9027;48.938;9.182;2022-08-01T08:52:06;29.00;97.10
17807;DHT22;9027;48.938;9.182;2022-08-01T08:53:40;29.10;96.50
17807;DHT22;9027;48.938;9.182;2022-08-01T08:55:16;29.30;96.40
17807;DHT22;9027;48.938;9.182;2022-08-01T08:56:49;29.60;95.90
17807;DHT22;9027;48.938;9.182;2022-08-01T08:58:22;29.70;95.40
17807;DHT22;9027;48.938;9.182;2022-08-01T08:59:58;29.60;95.50
17807;DHT22;9027;48.938;9.182;2022-08-01T09:01:31;29.60;96.20
17807;DHT22;9027;48.938;9.182;2022-08-01T09:03:05;29.50;95.60
17807;DHT22;9027;48.938;9.182;2022-08-01T09:04:37;29.30;95.20
17807;DHT22;9027;48.938;9.182;2022-08-01T09:06:11;29.20;95.20
17807;DHT22;9027;48.938;9.182;2022-08-01T09:07:43;29.30;95.30
17807;DHT22;9027;48.938;9.182;2022-08-01T09:09:14;29.20;95.20
17807;DHT22;9027;48.938;9.182;2022-08-01T09:10:46;29.30;95.40
17807;DHT22;9027;48.938;9.182;2022-08-01T09:12:18;29.50;95.40
17807;DHT22;9027;48.938;9.182;2022-08-01T09:14:06;29.50;95.20
17807;DHT22;9027;48.938;9.182;2022-08-01T09:15:42;29.60;95.60
17807;DHT22;9027;48.938;9.182;2022-08-01T09:17:14;29.70;94.70
17807;DHT22;9027;48.938;9.182;2022-08-01T09:18:47;29.60;94.90
17807;DHT22;9027;48.938;9.182;2022-08-01T09:20:23;29.70;95.50
17807;DHT22;9027;48.938;9.182;2022-08-01T09:21:56;29.60;94.70
17807;DHT22;9027;48.938;9.182;2022-08-01T09:23:32;29.50;94.70
17807;DHT22;9027;48.938;9.182;2022-08-01T09:25:06;29.10;96.00
17807;DHT22;9027;48.938;9.182;2022-08-01T09:26:39;29.00;96.00
17807;DHT22;9027;48.938;9.182;2022-08-01T09:28:11;29.10;96.00
17807;DHT22;9027;48.938;9.182;2022-08-01T09:29:43;29.30;95.30
17807;DHT22;9027;48.938;9.182;2022-08-01T09:31:18;29.60;95.10
17807;DHT22;9027;48.938;9.182;2022-08-01T09:32:55;30.00;94.90
17807;DHT22;9027;48.938;9.182;2022-08-01T09:34:28;30.00;94.50
17807;DHT22;9027;48.938;9.182;2022-08-01T09:36:00;30.20;94.30
17807;DHT22;9027;48.938;9.182;2022-08-01T09:37:32;30.10;94.50
17807;DHT22;9027;48.938;9.182;2022-08-01T09:39:13;29.90;94.30
17807;DHT22;9027;48.938;9.182;2022-08-01T09:40:47;29.90;94.70
17807;DHT22;9027;48.938;9.182;2022-08-01T09:42:21;30.10;94.50
17807;DHT22;9027;48.938;9.182;2022-08-01T09:43:53;30.20;93.80
17807;DHT22;9027;48.938;9.182;2022-08-01T09:45:31;30.10;93.80
17807;DHT22;9027;48.938;9.182;2022-08-01T09:47:05;29.90;94.40
17807;DHT22;9027;48.938;9.182;2022-08-01T09:48:37;29.60;94.70
17807;DHT22;9027;48.938;9.182;2022-08-01T09:50:11;29.30;95.00
17807;DHT22;9027;48.938;9.182;2022-08-01T09:51:43;29.30;95.00
17807;DHT22;9027;48.938;9.182;2022-08-01T09:53:15;29.40;95.20
17807;DHT22;9027;48.938;9.182;2022-08-01T09:54:52;29.70;94.60
17807;DHT22;9027;48.938;9.182;2022-08-01T09:56:24;30.10;94.50
17807;DHT22;9027;48.938;9.182;2022-08-01T09:57:56;30.60;93.90
17807;DHT22;9027;48.938;9.182;2022-08-01T09:59:34;30.70;92.90